createdAt,value
2019-04-20T00:02:08.302Z,1.27
2019-04-20T00:06:04.830Z,1.12
2019-04-20T00:10:13.739Z,1.40
2019-04-20T00:14:19.227Z,1.00
2019-04-20T00:18:25.939Z,0.78
2019-04-20T00:22:36.706Z,0.60
2019-04-20T00:27:06.122Z,1.37
2019-04-20T00:30:59.051Z,1.30
2019-04-20T00:34:48.850Z,0.40
2019-04-20T00:38:55.074Z,0.82
2019-04-20T00:42:59.564Z,1.35
2019-04-20T00:47:13.295Z,1.55
2019-04-20T00:51:30.591Z,1.32
2019-04-20T00:55:14.931Z,0.50
2019-04-20T00:59:31.759Z,2.07
2019-04-20T01:03:38.991Z,1.70
2019-04-20T01:07:52.948Z,0.72
2019-04-20T01:11:52.897Z,1.22
2019-04-20T01:16:05.031Z,0.72
2019-04-20T01:20:01.900Z,1.05
2019-04-20T01:24:08.291Z,0.72
2019-04-20T01:28:29.937Z,1.45
2019-04-20T01:32:29.194Z,1.55
2019-04-20T01:36:43.624Z,0.55
2019-04-20T01:40:27.506Z,0.33
2019-04-20T01:44:36.770Z,0.93
2019-04-20T01:48:38.661Z,1.47
2019-04-20T01:52:54.015Z,0.50
2019-04-20T01:56:58.045Z,0.47
2019-04-20T02:01:00.371Z,0.93
2019-04-20T02:05:13.580Z,0.57
2019-04-20T02:09:15.664Z,0.57
2019-04-20T02:13:17.401Z,0.70
2019-04-20T02:17:29.759Z,0.40
2019-04-20T02:21:44.953Z,1.02
2019-04-20T02:25:34.003Z,0.47
2019-04-20T02:29:58.151Z,0.23
2019-04-20T02:34:15.705Z,0.68
2019-04-20T02:38:23.130Z,0.30
2019-04-20T02:42:42.809Z,0.33
2019-04-20T02:46:31.722Z,0.98
2019-04-20T02:54:52.708Z,0.40
2019-04-20T02:59:02.026Z,0.78
2019-04-20T03:02:41.538Z,0.40
2019-04-20T03:06:54.864Z,0.98
2019-04-20T03:11:09.391Z,0.65
2019-04-20T03:14:59.717Z,0.40
2019-04-20T03:19:08.085Z,0.53
2019-04-20T03:27:24.782Z,0.34
2019-04-20T03:31:58.670Z,0.55
2019-04-20T03:35:43.175Z,0.47
2019-04-20T03:39:41.688Z,0.30
2019-04-20T03:43:32.826Z,0.65
2019-04-20T03:47:49.736Z,1.02
2019-04-20T03:52:03.690Z,0.45
2019-04-20T03:56:30.905Z,0.60
2019-04-20T04:00:50.768Z,0.82
2019-04-20T04:05:08.800Z,0.96
2019-04-20T04:09:12.316Z,0.32
2019-04-20T04:13:16.790Z,0.72
2019-04-20T04:17:27.911Z,0.47
2019-04-20T04:21:40.828Z,0.82
2019-04-20T04:25:49.979Z,0.85
2019-04-20T04:29:58.228Z,0.98
2019-04-20T04:34:12.517Z,1.37
2019-04-20T04:38:06.691Z,0.55
2019-04-20T04:42:17.845Z,0.33
2019-04-20T04:45:59.557Z,1.02
2019-04-20T04:50:10.783Z,0.20
2019-04-20T04:54:16.560Z,1.07
2019-04-20T04:58:14.903Z,0.72
2019-04-20T05:02:23.611Z,1.32
2019-04-20T05:06:37.734Z,1.60
2019-04-20T05:10:29.579Z,1.02
2019-04-20T05:14:48.212Z,0.95
2019-04-20T05:19:07.713Z,1.07
2019-04-20T05:23:12.685Z,1.40
2019-04-20T05:27:30.197Z,1.75
2019-04-20T05:31:18.500Z,1.63
2019-04-20T05:35:43.449Z,1.10
2019-04-20T05:39:50.394Z,1.02
2019-04-20T05:44:01.615Z,1.77
2019-04-20T05:48:09.056Z,1.72
2019-04-20T05:52:28.923Z,1.70
2019-04-20T05:56:28.629Z,1.52
2019-04-20T06:00:33.561Z,2.05
2019-04-20T06:04:55.903Z,1.32
2019-04-20T06:08:45.316Z,1.80
2019-04-20T06:12:48.386Z,1.30
2019-04-20T06:17:04.760Z,1.45
2019-04-20T06:21:15.829Z,1.95
2019-04-20T06:25:31.588Z,2.37
2019-04-20T06:29:13.683Z,2.45
2019-04-20T06:38:23.206Z,1.95
2019-04-20T06:46:14.851Z,1.52
2019-04-20T06:50:17.289Z,1.90
2019-04-20T06:54:17.341Z,1.62
2019-04-20T07:02:41.206Z,2.47
2019-04-20T07:06:50.753Z,1.92
2019-04-20T07:10:57.832Z,2.15
2019-04-20T07:14:46.999Z,1.92
2019-04-20T07:19:17.234Z,1.70
2019-04-20T07:23:23.725Z,1.65
2019-04-20T07:27:22.933Z,1.82
2019-04-20T07:31:24.241Z,2.08
2019-04-20T07:35:30.489Z,1.67
2019-04-20T07:39:40.323Z,1.90
2019-04-20T07:43:54.139Z,2.57
2019-04-20T07:51:38.383Z,2.25
2019-04-20T07:56:00.546Z,1.50
2019-04-20T08:00:06.327Z,1.67
2019-04-20T08:04:13.550Z,1.75
2019-04-20T08:08:18.119Z,1.70
2019-04-20T08:12:51.601Z,1.95
2019-04-20T08:17:05.436Z,2.00
2019-04-20T08:20:52.658Z,1.32
2019-04-20T08:25:00.318Z,1.82
2019-04-20T08:28:58.089Z,1.15
2019-04-20T08:33:19.469Z,1.10
2019-04-20T08:37:26.631Z,1.37
2019-04-20T08:41:25.124Z,1.77
2019-04-20T08:45:43.307Z,0.88
2019-04-20T08:50:13.106Z,1.32
2019-04-20T08:54:08.418Z,1.92
2019-04-20T08:57:54.624Z,1.62
2019-04-20T09:02:05.122Z,1.22
2019-04-20T09:06:21.561Z,1.57
2019-04-20T09:10:34.314Z,1.40
2019-04-20T09:14:21.379Z,1.20
2019-04-20T09:18:34.453Z,1.57
2019-04-20T09:22:50.701Z,1.10
2019-04-20T09:27:01.148Z,1.20
2019-04-20T09:31:12.037Z,0.90
2019-04-20T09:35:20.985Z,0.95
2019-04-20T09:39:29.530Z,1.12
2019-04-20T09:43:30.718Z,1.30
2019-04-20T09:47:41.931Z,0.95
2019-04-20T09:51:56.387Z,0.87
2019-04-20T09:56:01.915Z,1.40
2019-04-20T10:00:07.175Z,1.27
2019-04-20T10:03:57.081Z,1.05
2019-04-20T10:08:04.368Z,1.17
2019-04-20T10:12:07.806Z,1.30
2019-04-20T10:16:11.529Z,1.37
2019-04-20T10:20:23.558Z,1.30
2019-04-20T10:24:20.871Z,1.02
2019-04-20T10:28:25.616Z,1.40
2019-04-20T10:32:36.257Z,1.25
2019-04-20T10:36:43.467Z,1.32
2019-04-20T10:40:59.724Z,1.30
2019-04-20T10:44:55.879Z,1.07
2019-04-20T10:49:02.804Z,1.57
2019-04-20T10:53:03.701Z,1.47
2019-04-20T10:57:07.883Z,1.57
2019-04-20T11:01:11.666Z,1.12
2019-04-20T11:05:16.819Z,1.50
2019-04-20T11:09:20.770Z,1.07
2019-04-20T11:13:25.547Z,1.40
2019-04-20T11:17:30.565Z,1.20
2019-04-20T11:21:34.551Z,1.10
2019-04-20T11:25:38.268Z,1.12
2019-04-20T11:29:42.207Z,1.00
2019-04-20T11:33:45.968Z,1.37
2019-04-20T11:37:49.621Z,0.93
2019-04-20T11:41:53.971Z,1.45
2019-04-20T11:45:58.464Z,1.27
2019-04-20T11:50:03.684Z,1.00
2019-04-20T11:54:08.288Z,1.82
2019-04-20T11:58:12.201Z,2.00
2019-04-20T12:02:39.852Z,2.30
2019-04-20T12:06:39.306Z,1.22
2019-04-20T12:10:48.124Z,1.57
2019-04-20T12:14:48.526Z,1.77
2019-04-20T12:18:52.553Z,1.25
2019-04-20T12:22:56.303Z,1.10
2019-04-20T12:27:00.750Z,1.42
2019-04-20T12:31:12.887Z,1.00
2019-04-20T12:35:11.999Z,1.30
2019-04-20T12:39:16.936Z,1.47
2019-04-20T12:43:20.997Z,1.10
2019-04-20T12:47:25.754Z,1.77
2019-04-20T12:51:33.786Z,1.75
2019-04-20T12:55:34.787Z,0.88
2019-04-20T12:59:39.266Z,0.88
2019-04-20T13:03:43.921Z,1.70
2019-04-20T13:07:53.206Z,1.05
2019-04-20T13:12:01.114Z,1.20
2019-04-20T13:16:05.927Z,1.42
2019-04-20T13:20:10.108Z,2.17
2019-04-20T13:24:13.706Z,1.05
2019-04-20T13:28:18.902Z,1.20
2019-04-20T13:32:23.518Z,1.00
2019-04-20T13:36:28.519Z,1.00
2019-04-20T13:40:33.410Z,1.27
2019-04-20T13:44:37.074Z,1.15
2019-04-20T13:48:40.786Z,1.40
2019-04-20T13:52:44.767Z,0.98
2019-04-20T13:56:50.106Z,0.98
2019-04-20T14:00:55.960Z,0.85
2019-04-20T14:05:02.769Z,1.10
2019-04-20T14:09:09.821Z,1.22
2019-04-20T14:13:17.493Z,1.15
2019-04-20T14:17:19.261Z,1.45
2019-04-20T14:21:23.941Z,0.70
2019-04-20T14:25:29.003Z,1.02
2019-04-20T14:29:32.871Z,0.88
2019-04-20T14:33:37.021Z,0.98
2019-04-20T14:37:41.678Z,1.05
2019-04-20T14:41:46.518Z,1.10
2019-04-20T14:45:50.549Z,1.12
2019-04-20T14:49:55.156Z,0.95
2019-04-20T14:53:59.620Z,1.00
2019-04-20T14:58:05.793Z,1.02
2019-04-20T15:02:15.366Z,1.20
2019-04-20T15:06:19.955Z,0.98
2019-04-20T15:10:24.837Z,1.15
2019-04-20T15:14:29.058Z,1.20
2019-04-20T15:18:35.583Z,1.20
2019-04-20T15:22:41.377Z,1.35
2019-04-20T15:26:45.114Z,0.80
2019-04-20T15:30:50.000Z,1.07
2019-04-20T15:34:53.567Z,1.67
2019-04-20T15:38:57.176Z,1.42
2019-04-20T15:43:09.752Z,1.65
2019-04-20T15:47:07.019Z,1.72
2019-04-20T15:51:12.050Z,1.62
2019-04-20T15:55:21.562Z,1.23
2019-04-20T15:59:22.228Z,1.27
2019-04-20T16:03:27.706Z,0.68
2019-04-20T16:07:40.590Z,1.50
2019-04-20T16:11:37.002Z,2.08
2019-04-20T16:15:40.763Z,1.40
2019-04-20T16:19:52.229Z,1.45
2019-04-20T16:23:52.594Z,1.20
2019-04-20T16:27:56.315Z,1.37
2019-04-20T16:32:00.474Z,2.15
2019-04-20T16:36:04.799Z,3.55
2019-04-20T16:40:09.888Z,6.33
2019-04-20T16:44:13.552Z,4.45
2019-04-20T16:48:18.015Z,4.40
2019-04-20T16:52:22.962Z,2.25
2019-04-20T16:56:26.671Z,1.50
2019-04-20T17:00:31.526Z,1.98
2019-04-20T17:04:35.606Z,1.98
2019-04-20T17:08:41.589Z,1.20
2019-04-20T17:12:45.911Z,2.42
2019-04-20T17:16:49.624Z,1.52
2019-04-20T17:20:53.698Z,2.08
2019-04-20T17:24:58.419Z,1.67
2019-04-20T17:29:10.573Z,2.30
2019-04-20T17:33:22.453Z,1.85
2019-04-20T17:37:24.791Z,2.17
2019-04-20T17:41:49.980Z,1.12
2019-04-20T17:45:43.214Z,1.42
2019-04-20T17:50:00.711Z,1.90
2019-04-20T17:53:52.776Z,0.95
2019-04-20T17:57:53.186Z,1.90
2019-04-20T18:02:14.532Z,1.80
2019-04-20T18:06:20.286Z,3.02
2019-04-20T18:10:29.014Z,1.85
2019-04-20T18:14:35.237Z,1.98
2019-04-20T18:18:39.099Z,2.75
2019-04-20T18:22:29.638Z,3.67
2019-04-20T18:26:52.138Z,2.55
2019-04-20T18:30:56.690Z,3.15
2019-04-20T18:35:03.509Z,2.72
2019-04-20T18:39:10.267Z,3.38
2019-04-20T18:43:18.800Z,3.00
2019-04-20T18:47:40.563Z,2.87
2019-04-20T18:51:23.851Z,4.70
2019-04-20T18:55:40.732Z,3.87
2019-04-20T18:59:40.884Z,3.30
2019-04-20T19:03:42.700Z,3.10
2019-04-20T19:07:53.912Z,3.37
2019-04-20T19:11:55.812Z,3.20
2019-04-20T19:16:23.250Z,3.35
2019-04-20T19:20:26.455Z,3.20
2019-04-20T19:24:31.371Z,3.05
2019-04-20T19:28:41.047Z,2.72
2019-04-20T19:32:54.548Z,3.47
2019-04-20T19:37:00.097Z,3.70
2019-04-20T19:40:59.421Z,2.98
2019-04-20T19:45:17.588Z,1.90
2019-04-20T19:49:15.310Z,2.17
2019-04-20T19:53:26.547Z,2.55
2019-04-20T19:57:34.813Z,1.80
2019-04-20T20:01:17.720Z,3.05
2019-04-20T20:05:29.193Z,2.67
2019-04-20T20:09:28.002Z,1.80
2019-04-20T20:13:39.794Z,2.72
2019-04-20T20:17:54.200Z,1.57
2019-04-20T20:22:00.285Z,2.22
2019-04-20T20:25:49.626Z,2.12
2019-04-20T20:30:04.173Z,2.55
2019-04-20T20:34:10.938Z,2.65
2019-04-20T20:38:14.606Z,2.30
2019-04-20T20:42:26.171Z,2.75
2019-04-20T20:46:23.953Z,2.27
2019-04-20T20:50:42.687Z,2.33
2019-04-20T20:54:40.479Z,1.85
2019-04-20T20:58:43.758Z,2.75
2019-04-20T21:02:44.740Z,1.72
2019-04-20T21:06:44.998Z,1.35
2019-04-20T21:10:49.685Z,2.62
2019-04-20T21:14:55.199Z,3.45
2019-04-20T21:19:14.749Z,2.37
2019-04-20T21:23:18.080Z,2.85
2019-04-20T21:27:14.627Z,2.05
2019-04-20T21:31:20.394Z,2.87
2019-04-20T21:35:21.488Z,2.33
2019-04-20T21:39:34.823Z,2.10
2019-04-20T21:43:35.144Z,2.30
2019-04-20T21:47:40.846Z,1.55
2019-04-20T21:51:49.759Z,1.55
2019-04-20T21:55:47.999Z,1.30
2019-04-20T21:59:54.288Z,2.35
2019-04-20T22:03:58.483Z,2.42
2019-04-20T22:08:07.291Z,2.30
2019-04-20T22:12:07.856Z,2.30
2019-04-20T22:16:13.139Z,1.80
2019-04-20T22:20:26.751Z,2.27
2019-04-20T22:24:40.266Z,2.20
2019-04-20T22:28:27.687Z,1.37
2019-04-20T22:32:32.232Z,1.45
2019-04-20T22:36:41.435Z,1.70
2019-04-20T22:40:41.205Z,1.47
2019-04-20T22:44:48.521Z,3.08
2019-04-20T22:48:59.558Z,2.52
2019-04-20T22:53:15.613Z,2.87
2019-04-20T22:57:11.791Z,1.85
2019-04-20T23:01:23.995Z,1.75
2019-04-20T23:05:15.245Z,1.95
2019-04-20T23:09:18.886Z,2.33
2019-04-20T23:13:29.495Z,2.05
2019-04-20T23:17:36.561Z,2.20
2019-04-20T23:21:34.099Z,1.92
2019-04-20T23:25:38.895Z,1.80
2019-04-20T23:29:43.651Z,3.70
2019-04-20T23:33:47.911Z,2.40
2019-04-20T23:37:56.430Z,4.08
2019-04-20T23:42:02.417Z,3.52
2019-04-20T23:46:25.687Z,1.70
2019-04-20T23:50:40.950Z,1.65
2019-04-20T23:54:34.028Z,2.45
2019-04-20T23:58:42.857Z,3.08
